aviador You're here:

PAMK Decoded Metar

ST MICHAEL in AK, USA
Report Time2017-12-16 02:56:00
UTC Time2017-12-16 03:39:33
Flight Rules mvfr MVFR
Wind060° at 18 kt
W.Decomp.*RWY 02: 16.6 kt HW 7.0 kt RCW
W.Rank060° ranks 4
Current wind is above 060° avg. (10.2)
Visibility6437 m
Phenomena:Light Snow
Mist
Clouds:Overcast 025 Hf
Expected CloudBase > 400 ft AGL from Temp-Dew spread
Ceiling2,500 ft
Temp-2°C (ISA -17)
Dew Point-3°C (93% RH)
AAT-10.9°C
QNH982 hPa
Density Alt-830 ft
Elevation92 ft
Report Wrong Elevation
Raw Report
PAMK 160256Z AUTO 06018KT 4SM -SN BR OVC025 M02/M03 A2901 RMK AO2
PK WND 05027/0208 SNB0159 SLP828 P0000 60000 T10221033 56031
FZRANO $=

Extra information for PAMK:More info

Metar Taf Metar & Taf Last 4 Metars F.Rules Stats Wind Profile Meteogram Temp Stats Airport Information Weather charts Add Link Nearby VenuesMetar ALERT Operation Metar Decoded Social comments

AIRNAV info for PAMK